sensor_id;sensor_type;location;lat;lon;timestamp;P1;durP1;ratioP1;P2;durP2;ratioP2
38037;SDS011;23843;51.320;12.340;2023-06-19T00:00:55;1.05;;;0.95;;
38037;SDS011;23843;51.320;12.340;2023-06-19T00:03:21;1.00;;;1.00;;
38037;SDS011;23843;51.320;12.340;2023-06-19T00:05:46;1.10;;;1.10;;
38037;SDS011;23843;51.320;12.340;2023-06-19T00:08:12;0.90;;;0.85;;
38037;SDS011;23843;51.320;12.340;2023-06-19T00:10:39;0.47;;;0.47;;
38037;SDS011;23843;51.320;12.340;2023-06-19T00:13:04;0.63;;;0.63;;
38037;SDS011;23843;51.320;12.340;2023-06-19T00:15:29;0.70;;;0.60;;
38037;SDS011;23843;51.320;12.340;2023-06-19T00:17:55;0.80;;;0.80;;
38037;SDS011;23843;51.320;12.340;2023-06-19T00:20:21;0.63;;;0.63;;
38037;SDS011;23843;51.320;12.340;2023-06-19T00:22:46;0.73;;;0.73;;
38037;SDS011;23843;51.320;12.340;2023-06-19T00:25:12;1.50;;;1.25;;
38037;SDS011;23843;51.320;12.340;2023-06-19T00:27:39;1.80;;;1.60;;
38037;SDS011;23843;51.320;12.340;2023-06-19T00:30:05;2.30;;;2.00;;
38037;SDS011;23843;51.320;12.340;2023-06-19T00:32:31;2.00;;;1.80;;
38037;SDS011;23843;51.320;12.340;2023-06-19T00:34:56;1.50;;;1.40;;
38037;SDS011;23843;51.320;12.340;2023-06-19T00:37:22;1.40;;;1.23;;
38037;SDS011;23843;51.320;12.340;2023-06-19T00:39:47;1.73;;;1.52;;
38037;SDS011;23843;51.320;12.340;2023-06-19T00:42:13;1.30;;;1.20;;
38037;SDS011;23843;51.320;12.340;2023-06-19T00:44:40;1.50;;;1.40;;
38037;SDS011;23843;51.320;12.340;2023-06-19T00:47:05;1.60;;;1.50;;
38037;SDS011;23843;51.320;12.340;2023-06-19T00:49:31;1.40;;;1.30;;
38037;SDS011;23843;51.320;12.340;2023-06-19T00:51:56;1.80;;;1.60;;
38037;SDS011;23843;51.320;12.340;2023-06-19T00:54:23;1.40;;;1.30;;
38037;SDS011;23843;51.320;12.340;2023-06-19T00:56:49;1.40;;;1.30;;
38037;SDS011;23843;51.320;12.340;2023-06-19T00:59:15;0.98;;;0.98;;
38037;SDS011;23843;51.320;12.340;2023-06-19T01:01:43;1.60;;;1.50;;
38037;SDS011;23843;51.320;12.340;2023-06-19T01:04:09;1.40;;;1.30;;
38037;SDS011;23843;51.320;12.340;2023-06-19T01:06:36;1.58;;;1.40;;
38037;SDS011;23843;51.320;12.340;2023-06-19T01:09:08;1.70;;;1.48;;
38037;SDS011;23843;51.320;12.340;2023-06-19T01:11:39;3.17;;;2.13;;
38037;SDS011;23843;51.320;12.340;2023-06-19T01:14:08;2.20;;;2.00;;
38037;SDS011;23843;51.320;12.340;2023-06-19T01:16:38;1.40;;;1.30;;
38037;SDS011;23843;51.320;12.340;2023-06-19T01:19:05;1.05;;;1.02;;
38037;SDS011;23843;51.320;12.340;2023-06-19T01:21:35;1.60;;;1.50;;
38037;SDS011;23843;51.320;12.340;2023-06-19T01:24:02;0.98;;;0.95;;
38037;SDS011;23843;51.320;12.340;2023-06-19T01:26:28;1.45;;;1.35;;
38037;SDS011;23843;51.320;12.340;2023-06-19T01:28:53;1.90;;;1.80;;
38037;SDS011;23843;51.320;12.340;2023-06-19T01:31:23;2.10;;;1.90;;
38037;SDS011;23843;51.320;12.340;2023-06-19T01:33:56;2.38;;;2.17;;
38037;SDS011;23843;51.320;12.340;2023-06-19T01:36:22;2.38;;;2.17;;
38037;SDS011;23843;51.320;12.340;2023-06-19T01:38:49;1.50;;;1.40;;
38037;SDS011;23843;51.320;12.340;2023-06-19T01:41:17;1.55;;;1.45;;
38037;SDS011;23843;51.320;12.340;2023-06-19T01:43:44;1.42;;;1.33;;
38037;SDS011;23843;51.320;12.340;2023-06-19T01:46:11;1.20;;;1.10;;
38037;SDS011;23843;51.320;12.340;2023-06-19T01:48:37;1.70;;;1.60;;
38037;SDS011;23843;51.320;12.340;2023-06-19T01:51:03;1.80;;;1.70;;
38037;SDS011;23843;51.320;12.340;2023-06-19T01:53:29;1.73;;;1.63;;
38037;SDS011;23843;51.320;12.340;2023-06-19T01:55:55;1.77;;;1.67;;
38037;SDS011;23843;51.320;12.340;2023-06-19T01:58:22;2.40;;;2.20;;
38037;SDS011;23843;51.320;12.340;2023-06-19T02:00:47;1.98;;;1.80;;
38037;SDS011;23843;51.320;12.340;2023-06-19T02:03:13;2.03;;;1.90;;
38037;SDS011;23843;51.320;12.340;2023-06-19T02:05:38;2.30;;;2.10;;
38037;SDS011;23843;51.320;12.340;2023-06-19T02:08:04;2.72;;;1.45;;
38037;SDS011;23843;51.320;12.340;2023-06-19T02:10:29;2.72;;;2.53;;
38037;SDS011;23843;51.320;12.340;2023-06-19T02:12:55;2.20;;;2.00;;
38037;SDS011;23843;51.320;12.340;2023-06-19T02:15:21;1.63;;;1.52;;
38037;SDS011;23843;51.320;12.340;2023-06-19T02:17:47;1.50;;;1.40;;
38037;SDS011;23843;51.320;12.340;2023-06-19T02:20:12;1.40;;;1.30;;
38037;SDS011;23843;51.320;12.340;2023-06-19T02:22:38;1.48;;;1.38;;
38037;SDS011;23843;51.320;12.340;2023-06-19T02:25:04;2.17;;;1.80;;
38037;SDS011;23843;51.320;12.340;2023-06-19T02:27:30;2.20;;;2.00;;
38037;SDS011;23843;51.320;12.340;2023-06-19T02:29:56;2.35;;;2.13;;
38037;SDS011;23843;51.320;12.340;2023-06-19T02:32:22;2.08;;;1.88;;
38037;SDS011;23843;51.320;12.340;2023-06-19T02:34:48;1.80;;;1.70;;
38037;SDS011;23843;51.320;12.340;2023-06-19T02:37:13;1.80;;;1.70;;
38037;SDS011;23843;51.320;12.340;2023-06-19T02:39:39;1.90;;;1.80;;
38037;SDS011;23843;51.320;12.340;2023-06-19T02:42:06;2.30;;;2.10;;
38037;SDS011;23843;51.320;12.340;2023-06-19T02:44:32;3.17;;;2.70;;
38037;SDS011;23843;51.320;12.340;2023-06-19T02:46:57;3.00;;;2.70;;
38037;SDS011;23843;51.320;12.340;2023-06-19T02:49:24;3.17;;;2.88;;
38037;SDS011;23843;51.320;12.340;2023-06-19T02:51:49;2.72;;;2.53;;
38037;SDS011;23843;51.320;12.340;2023-06-19T02:54:15;2.70;;;2.50;;
38037;SDS011;23843;51.320;12.340;2023-06-19T02:56:40;3.78;;;3.38;;
38037;SDS011;23843;51.320;12.340;2023-06-19T02:59:06;2.72;;;2.40;;
38037;SDS011;23843;51.320;12.340;2023-06-19T03:01:31;2.70;;;2.50;;
38037;SDS011;23843;51.320;12.340;2023-06-19T03:03:57;3.40;;;2.88;;
38037;SDS011;23843;51.320;12.340;2023-06-19T03:06:24;3.83;;;3.42;;
38037;SDS011;23843;51.320;12.340;2023-06-19T03:08:49;2.38;;;2.17;;
38037;SDS011;23843;51.320;12.340;2023-06-19T03:11:15;2.50;;;2.30;;
38037;SDS011;23843;51.320;12.340;2023-06-19T03:13:44;2.60;;;2.40;;
38037;SDS011;23843;51.320;12.340;2023-06-19T03:16:10;2.85;;;2.65;;
38037;SDS011;23843;51.320;12.340;2023-06-19T03:18:35;3.83;;;2.80;;
38037;SDS011;23843;51.320;12.340;2023-06-19T03:21:01;2.20;;;2.00;;
38037;SDS011;23843;51.320;12.340;2023-06-19T03:23:28;2.30;;;2.10;;
38037;SDS011;23843;51.320;12.340;2023-06-19T03:25:53;2.00;;;1.90;;
38037;SDS011;23843;51.320;12.340;2023-06-19T03:28:19;2.00;;;1.80;;
38037;SDS011;23843;51.320;12.340;2023-06-19T03:30:44;2.13;;;1.92;;
38037;SDS011;23843;51.320;12.340;2023-06-19T03:33:09;2.30;;;2.10;;
38037;SDS011;23843;51.320;12.340;2023-06-19T03:35:35;2.95;;;2.65;;
38037;SDS011;23843;51.320;12.340;2023-06-19T03:38:00;2.97;;;2.40;;
38037;SDS011;23843;51.320;12.340;2023-06-19T03:40:27;2.60;;;2.40;;
38037;SDS011;23843;51.320;12.340;2023-06-19T03:42:52;2.72;;;2.40;;
38037;SDS011;23843;51.320;12.340;2023-06-19T03:45:18;2.80;;;2.60;;
38037;SDS011;23843;51.320;12.340;2023-06-19T03:47:43;2.47;;;2.28;;
38037;SDS011;23843;51.320;12.340;2023-06-19T03:50:09;3.45;;;2.50;;
38037;SDS011;23843;51.320;12.340;2023-06-19T03:52:35;3.38;;;2.80;;
38037;SDS011;23843;51.320;12.340;2023-06-19T03:55:00;2.60;;;2.22;;
38037;SDS011;23843;51.320;12.340;2023-06-19T03:57:27;2.65;;;2.45;;
38037;SDS011;23843;51.320;12.340;2023-06-19T03:59:52;2.85;;;2.65;;
38037;SDS011;23843;51.320;12.340;2023-06-19T04:02:18;2.88;;;2.67;;
38037;SDS011;23843;51.320;12.340;2023-06-19T04:04:43;3.92;;;3.53;;
38037;SDS011;23843;51.320;12.340;2023-06-19T04:07:09;3.40;;;3.10;;
38037;SDS011;23843;51.320;12.340;2023-06-19T04:09:34;2.10;;;1.90;;
38037;SDS011;23843;51.320;12.340;2023-06-19T04:12:00;2.40;;;2.20;;
38037;SDS011;23843;51.320;12.340;2023-06-19T04:14:27;1.58;;;1.48;;
38037;SDS011;23843;51.320;12.340;2023-06-19T04:16:52;1.40;;;1.20;;
38037;SDS011;23843;51.320;12.340;2023-06-19T04:19:18;1.77;;;1.67;;
38037;SDS011;23843;51.320;12.340;2023-06-19T04:21:43;1.30;;;1.20;;
38037;SDS011;23843;51.320;12.340;2023-06-19T04:24:09;1.60;;;1.50;;
38037;SDS011;23843;51.320;12.340;2023-06-19T04:26:34;1.40;;;1.30;;
38037;SDS011;23843;51.320;12.340;2023-06-19T04:29:00;1.50;;;1.40;;
38037;SDS011;23843;51.320;12.340;2023-06-19T04:31:27;1.30;;;1.20;;
38037;SDS011;23843;51.320;12.340;2023-06-19T04:33:52;1.23;;;1.13;;
38037;SDS011;23843;51.320;12.340;2023-06-19T04:36:18;1.60;;;1.50;;
38037;SDS011;23843;51.320;12.340;2023-06-19T04:38:46;1.67;;;1.58;;
38037;SDS011;23843;51.320;12.340;2023-06-19T04:41:12;1.27;;;1.17;;
38037;SDS011;23843;51.320;12.340;2023-06-19T04:43:37;1.30;;;1.20;;
38037;SDS011;23843;51.320;12.340;2023-06-19T04:46:03;1.00;;;1.00;;
38037;SDS011;23843;51.320;12.340;2023-06-19T04:48:29;1.33;;;1.20;;
38037;SDS011;23843;51.320;12.340;2023-06-19T04:50:55;2.00;;;1.63;;
38037;SDS011;23843;51.320;12.340;2023-06-19T04:53:21;1.80;;;1.70;;
38037;SDS011;23843;51.320;12.340;2023-06-19T04:55:46;1.50;;;1.40;;
38037;SDS011;23843;51.320;12.340;2023-06-19T04:58:12;1.85;;;1.75;;
38037;SDS011;23843;51.320;12.340;2023-06-19T05:00:37;2.17;;;1.98;;
38037;SDS011;23843;51.320;12.340;2023-06-19T05:03:03;2.10;;;2.00;;
38037;SDS011;23843;51.320;12.340;2023-06-19T05:05:29;2.05;;;1.90;;
38037;SDS011;23843;51.320;12.340;2023-06-19T05:07:55;1.80;;;1.70;;
38037;SDS011;23843;51.320;12.340;2023-06-19T05:10:21;1.80;;;1.70;;
38037;SDS011;23843;51.320;12.340;2023-06-19T05:12:46;1.90;;;1.80;;
38037;SDS011;23843;51.320;12.340;2023-06-19T05:15:11;2.65;;;2.45;;
38037;SDS011;23843;51.320;12.340;2023-06-19T05:17:37;2.80;;;2.60;;
38037;SDS011;23843;51.320;12.340;2023-06-19T05:20:03;3.30;;;3.00;;
38037;SDS011;23843;51.320;12.340;2023-06-19T05:22:30;3.40;;;3.08;;
38037;SDS011;23843;51.320;12.340;2023-06-19T05:24:56;4.40;;;4.00;;
38037;SDS011;23843;51.320;12.340;2023-06-19T05:27:21;3.75;;;3.45;;
38037;SDS011;23843;51.320;12.340;2023-06-19T05:29:47;3.80;;;3.50;;
38037;SDS011;23843;51.320;12.340;2023-06-19T05:32:12;4.82;;;4.43;;
38037;SDS011;23843;51.320;12.340;2023-06-19T05:34:38;4.13;;;3.72;;
38037;SDS011;23843;51.320;12.340;2023-06-19T05:37:03;3.33;;;3.03;;
38037;SDS011;23843;51.320;12.340;2023-06-19T05:39:30;3.55;;;3.13;;
38037;SDS011;23843;51.320;12.340;2023-06-19T05:41:56;3.47;;;3.17;;
38037;SDS011;23843;51.320;12.340;2023-06-19T05:44:21;5.05;;;3.80;;
38037;SDS011;23843;51.320;12.340;2023-06-19T05:46:47;3.42;;;3.13;;
38037;SDS011;23843;51.320;12.340;2023-06-19T05:49:12;3.72;;;3.42;;
38037;SDS011;23843;51.320;12.340;2023-06-19T05:51:38;2.60;;;2.40;;
38037;SDS011;23843;51.320;12.340;2023-06-19T05:54:03;3.60;;;3.30;;
38037;SDS011;23843;51.320;12.340;2023-06-19T05:56:30;3.67;;;3.28;;
38037;SDS011;23843;51.320;12.340;2023-06-19T05:58:56;2.60;;;2.40;;
38037;SDS011;23843;51.320;12.340;2023-06-19T06:01:25;2.10;;;2.00;;
38037;SDS011;23843;51.320;12.340;2023-06-19T06:03:50;1.85;;;1.75;;
38037;SDS011;23843;51.320;12.340;2023-06-19T06:06:16;1.60;;;1.50;;
38037;SDS011;23843;51.320;12.340;2023-06-19T06:08:41;3.33;;;2.20;;
38037;SDS011;23843;51.320;12.340;2023-06-19T06:11:08;2.33;;;2.13;;
38037;SDS011;23843;51.320;12.340;2023-06-19T06:13:35;3.17;;;2.92;;
38037;SDS011;23843;51.320;12.340;2023-06-19T06:16:01;3.60;;;3.30;;
38037;SDS011;23843;51.320;12.340;2023-06-19T06:18:26;3.70;;;3.40;;
38037;SDS011;23843;51.320;12.340;2023-06-19T06:20:54;6.80;;;4.75;;
38037;SDS011;23843;51.320;12.340;2023-06-19T06:23:20;5.20;;;4.70;;
38037;SDS011;23843;51.320;12.340;2023-06-19T06:25:45;5.25;;;4.75;;
38037;SDS011;23843;51.320;12.340;2023-06-19T06:28:10;5.63;;;4.35;;
38037;SDS011;23843;51.320;12.340;2023-06-19T06:30:37;3.60;;;3.30;;
38037;SDS011;23843;51.320;12.340;2023-06-19T06:33:03;3.20;;;2.90;;
38037;SDS011;23843;51.320;12.340;2023-06-19T06:35:28;2.50;;;2.30;;
38037;SDS011;23843;51.320;12.340;2023-06-19T06:37:56;2.92;;;2.72;;
38037;SDS011;23843;51.320;12.340;2023-06-19T06:40:21;3.97;;;3.55;;
38037;SDS011;23843;51.320;12.340;2023-06-19T06:42:47;4.15;;;3.67;;
38037;SDS011;23843;51.320;12.340;2023-06-19T06:45:12;2.90;;;2.67;;
38037;SDS011;23843;51.320;12.340;2023-06-19T06:47:39;2.58;;;2.38;;
38037;SDS011;23843;51.320;12.340;2023-06-19T06:50:08;4.85;;;3.67;;
38037;SDS011;23843;51.320;12.340;2023-06-19T06:52:33;3.50;;;2.92;;
38037;SDS011;23843;51.320;12.340;2023-06-19T06:54:59;2.83;;;2.60;;
38037;SDS011;23843;51.320;12.340;2023-06-19T06:57:24;2.13;;;1.92;;
38037;SDS011;23843;51.320;12.340;2023-06-19T06:59:50;1.80;;;1.70;;
38037;SDS011;23843;51.320;12.340;2023-06-19T07:02:15;1.55;;;1.45;;
38037;SDS011;23843;51.320;12.340;2023-06-19T07:04:42;1.25;;;1.15;;
38037;SDS011;23843;51.320;12.340;2023-06-19T07:07:08;1.38;;;1.27;;
38037;SDS011;23843;51.320;12.340;2023-06-19T07:09:33;1.98;;;1.50;;
38037;SDS011;23843;51.320;12.340;2023-06-19T07:11:59;3.00;;;2.60;;
38037;SDS011;23843;51.320;12.340;2023-06-19T07:14:25;2.08;;;1.92;;
38037;SDS011;23843;51.320;12.340;2023-06-19T07:16:50;1.48;;;1.38;;
38037;SDS011;23843;51.320;12.340;2023-06-19T07:19:15;1.88;;;1.77;;
38037;SDS011;23843;51.320;12.340;2023-06-19T07:21:42;2.00;;;1.80;;
38037;SDS011;23843;51.320;12.340;2023-06-19T07:24:08;1.80;;;1.70;;
38037;SDS011;23843;51.320;12.340;2023-06-19T07:26:34;1.60;;;1.50;;
38037;SDS011;23843;51.320;12.340;2023-06-19T07:29:00;1.30;;;1.20;;
38037;SDS011;23843;51.320;12.340;2023-06-19T07:31:28;2.50;;;2.30;;
38037;SDS011;23843;51.320;12.340;2023-06-19T07:33:54;3.67;;;3.38;;
38037;SDS011;23843;51.320;12.340;2023-06-19T07:36:21;3.63;;;3.33;;
38037;SDS011;23843;51.320;12.340;2023-06-19T07:38:48;6.07;;;5.30;;
38037;SDS011;23843;51.320;12.340;2023-06-19T07:41:14;3.58;;;3.28;;
38037;SDS011;23843;51.320;12.340;2023-06-19T07:43:41;3.38;;;3.08;;
38037;SDS011;23843;51.320;12.340;2023-06-19T07:46:09;2.95;;;2.60;;
38037;SDS011;23843;51.320;12.340;2023-06-19T07:48:35;2.38;;;2.10;;
38037;SDS011;23843;51.320;12.340;2023-06-19T07:51:00;2.33;;;2.10;;
38037;SDS011;23843;51.320;12.340;2023-06-19T07:53:26;2.67;;;2.47;;
38037;SDS011;23843;51.320;12.340;2023-06-19T07:55:53;2.30;;;2.10;;
38037;SDS011;23843;51.320;12.340;2023-06-19T07:58:21;3.08;;;2.88;;
38037;SDS011;23843;51.320;12.340;2023-06-19T08:00:46;3.70;;;3.33;;
38037;SDS011;23843;51.320;12.340;2023-06-19T08:03:12;2.80;;;2.60;;
38037;SDS011;23843;51.320;12.340;2023-06-19T08:05:37;3.53;;;3.22;;
38037;SDS011;23843;51.320;12.340;2023-06-19T08:08:03;3.30;;;3.00;;
38037;SDS011;23843;51.320;12.340;2023-06-19T08:10:29;5.20;;;4.70;;
38037;SDS011;23843;51.320;12.340;2023-06-19T08:12:55;4.28;;;3.88;;
38037;SDS011;23843;51.320;12.340;2023-06-19T08:15:21;3.45;;;3.15;;
38037;SDS011;23843;51.320;12.340;2023-06-19T08:17:46;2.60;;;2.40;;
38037;SDS011;23843;51.320;12.340;2023-06-19T08:20:12;3.15;;;2.58;;
38037;SDS011;23843;51.320;12.340;2023-06-19T08:22:37;2.30;;;2.10;;
38037;SDS011;23843;51.320;12.340;2023-06-19T08:25:03;2.75;;;2.55;;
38037;SDS011;23843;51.320;12.340;2023-06-19T08:27:29;3.72;;;3.30;;
38037;SDS011;23843;51.320;12.340;2023-06-19T08:29:59;5.65;;;3.28;;
38037;SDS011;23843;51.320;12.340;2023-06-19T08:32:25;4.95;;;4.43;;
38037;SDS011;23843;51.320;12.340;2023-06-19T08:34:50;4.30;;;3.90;;
38037;SDS011;23843;51.320;12.340;2023-06-19T08:37:16;3.50;;;3.20;;
38037;SDS011;23843;51.320;12.340;2023-06-19T08:39:42;3.75;;;3.45;;
38037;SDS011;23843;51.320;12.340;2023-06-19T08:42:08;3.35;;;3.05;;
38037;SDS011;23843;51.320;12.340;2023-06-19T08:44:34;5.10;;;4.18;;
38037;SDS011;23843;51.320;12.340;2023-06-19T08:47:01;3.72;;;3.42;;
38037;SDS011;23843;51.320;12.340;2023-06-19T08:49:29;3.80;;;3.50;;
38037;SDS011;23843;51.320;12.340;2023-06-19T08:51:54;4.18;;;3.83;;
38037;SDS011;23843;51.320;12.340;2023-06-19T08:54:20;4.28;;;3.65;;
38037;SDS011;23843;51.320;12.340;2023-06-19T08:56:46;4.18;;;3.78;;
38037;SDS011;23843;51.320;12.340;2023-06-19T08:59:13;3.03;;;2.83;;
38037;SDS011;23843;51.320;12.340;2023-06-19T09:01:40;2.88;;;2.67;;
38037;SDS011;23843;51.320;12.340;2023-06-19T09:04:13;3.08;;;2.88;;
38037;SDS011;23843;51.320;12.340;2023-06-19T09:06:46;3.90;;;3.60;;
38037;SDS011;23843;51.320;12.340;2023-06-19T09:09:13;4.00;;;3.70;;
38037;SDS011;23843;51.320;12.340;2023-06-19T09:11:38;4.10;;;3.80;;
38037;SDS011;23843;51.320;12.340;2023-06-19T09:14:07;3.47;;;3.17;;
38037;SDS011;23843;51.320;12.340;2023-06-19T09:16:36;3.70;;;3.40;;
38037;SDS011;23843;51.320;12.340;2023-06-19T09:19:02;4.50;;;4.10;;
38037;SDS011;23843;51.320;12.340;2023-06-19T09:21:29;4.35;;;3.97;;
38037;SDS011;23843;51.320;12.340;2023-06-19T09:23:55;4.18;;;3.80;;
38037;SDS011;23843;51.320;12.340;2023-06-19T09:26:27;4.00;;;3.70;;
38037;SDS011;23843;51.320;12.340;2023-06-19T09:28:53;4.00;;;3.55;;
38037;SDS011;23843;51.320;12.340;2023-06-19T09:31:18;4.63;;;4.22;;
38037;SDS011;23843;51.320;12.340;2023-06-19T09:33:44;4.53;;;4.18;;
38037;SDS011;23843;51.320;12.340;2023-06-19T09:36:09;6.57;;;5.97;;
38037;SDS011;23843;51.320;12.340;2023-06-19T09:38:37;5.20;;;4.80;;
38037;SDS011;23843;51.320;12.340;2023-06-19T09:41:04;4.13;;;3.83;;
38037;SDS011;23843;51.320;12.340;2023-06-19T09:43:33;3.10;;;2.90;;
38037;SDS011;23843;51.320;12.340;2023-06-19T09:46:03;2.80;;;2.60;;
38037;SDS011;23843;51.320;12.340;2023-06-19T09:48:34;3.70;;;3.28;;
38037;SDS011;23843;51.320;12.340;2023-06-19T09:51:06;3.35;;;3.05;;
38037;SDS011;23843;51.320;12.340;2023-06-19T09:53:43;2.25;;;2.15;;
38037;SDS011;23843;51.320;12.340;2023-06-19T09:56:11;3.10;;;2.90;;
38037;SDS011;23843;51.320;12.340;2023-06-19T09:58:37;2.70;;;2.50;;
38037;SDS011;23843;51.320;12.340;2023-06-19T10:01:03;2.35;;;2.17;;
38037;SDS011;23843;51.320;12.340;2023-06-19T10:03:30;2.90;;;2.70;;
38037;SDS011;23843;51.320;12.340;2023-06-19T10:05:57;2.70;;;2.50;;
38037;SDS011;23843;51.320;12.340;2023-06-19T10:08:26;4.93;;;4.50;;
38037;SDS011;23843;51.320;12.340;2023-06-19T10:10:54;4.00;;;3.70;;
38037;SDS011;23843;51.320;12.340;2023-06-19T10:13:20;5.07;;;3.83;;
38037;SDS011;23843;51.320;12.340;2023-06-19T10:15:45;3.58;;;3.28;;
38037;SDS011;23843;51.320;12.340;2023-06-19T10:18:13;4.38;;;3.97;;
38037;SDS011;23843;51.320;12.340;2023-06-19T10:20:39;4.32;;;3.92;;
38037;SDS011;23843;51.320;12.340;2023-06-19T10:23:06;3.90;;;3.60;;
38037;SDS011;23843;51.320;12.340;2023-06-19T10:25:36;2.80;;;2.60;;
38037;SDS011;23843;51.320;12.340;2023-06-19T10:28:04;3.75;;;3.45;;
38037;SDS011;23843;51.320;12.340;2023-06-19T10:30:41;3.80;;;3.50;;
38037;SDS011;23843;51.320;12.340;2023-06-19T10:33:07;2.92;;;2.72;;
38037;SDS011;23843;51.320;12.340;2023-06-19T10:35:37;5.57;;;5.15;;
38037;SDS011;23843;51.320;12.340;2023-06-19T10:38:03;3.47;;;3.28;;
38037;SDS011;23843;51.320;12.340;2023-06-19T10:40:29;4.15;;;3.85;;
38037;SDS011;23843;51.320;12.340;2023-06-19T10:42:54;4.50;;;4.15;;
38037;SDS011;23843;51.320;12.340;2023-06-19T10:45:21;4.18;;;3.88;;
38037;SDS011;23843;51.320;12.340;2023-06-19T10:47:46;3.25;;;3.05;;
38037;SDS011;23843;51.320;12.340;2023-06-19T10:50:12;3.13;;;2.83;;
38037;SDS011;23843;51.320;12.340;2023-06-19T10:52:42;2.72;;;2.53;;
38037;SDS011;23843;51.320;12.340;2023-06-19T10:55:08;5.93;;;5.32;;
38037;SDS011;23843;51.320;12.340;2023-06-19T10:57:34;4.75;;;4.35;;
38037;SDS011;23843;51.320;12.340;2023-06-19T11:00:00;3.70;;;3.40;;
38037;SDS011;23843;51.320;12.340;2023-06-19T11:02:27;3.55;;;3.25;;
38037;SDS011;23843;51.320;12.340;2023-06-19T11:04:52;4.80;;;3.95;;
38037;SDS011;23843;51.320;12.340;2023-06-19T11:07:18;2.92;;;2.63;;
38037;SDS011;23843;51.320;12.340;2023-06-19T11:09:44;2.70;;;2.50;;
38037;SDS011;23843;51.320;12.340;2023-06-19T11:12:09;3.17;;;2.88;;
38037;SDS011;23843;51.320;12.340;2023-06-19T11:14:35;3.83;;;3.53;;
38037;SDS011;23843;51.320;12.340;2023-06-19T11:17:02;7.20;;;4.90;;
38037;SDS011;23843;51.320;12.340;2023-06-19T11:19:30;5.00;;;4.60;;
38037;SDS011;23843;51.320;12.340;2023-06-19T11:21:57;4.63;;;4.30;;
38037;SDS011;23843;51.320;12.340;2023-06-19T11:24:22;3.00;;;2.80;;
38037;SDS011;23843;51.320;12.340;2023-06-19T11:26:48;4.38;;;4.05;;
38037;SDS011;23843;51.320;12.340;2023-06-19T11:29:15;5.05;;;4.63;;
38037;SDS011;23843;51.320;12.340;2023-06-19T11:31:41;3.50;;;3.30;;
38037;SDS011;23843;51.320;12.340;2023-06-19T11:34:07;3.53;;;3.22;;
38037;SDS011;23843;51.320;12.340;2023-06-19T11:36:33;2.83;;;2.63;;
38037;SDS011;23843;51.320;12.340;2023-06-19T11:39:02;3.10;;;2.90;;
38037;SDS011;23843;51.320;12.340;2023-06-19T11:41:28;3.75;;;3.45;;
38037;SDS011;23843;51.320;12.340;2023-06-19T11:44:00;4.80;;;4.40;;
38037;SDS011;23843;51.320;12.340;2023-06-19T11:46:29;3.60;;;3.30;;
38037;SDS011;23843;51.320;12.340;2023-06-19T11:48:55;3.97;;;3.67;;
38037;SDS011;23843;51.320;12.340;2023-06-19T11:51:21;3.40;;;3.13;;
38037;SDS011;23843;51.320;12.340;2023-06-19T11:53:48;4.65;;;4.25;;
38037;SDS011;23843;51.320;12.340;2023-06-19T11:56:13;4.18;;;3.78;;
38037;SDS011;23843;51.320;12.340;2023-06-19T11:58:39;4.47;;;4.10;;
38037;SDS011;23843;51.320;12.340;2023-06-19T12:01:04;5.18;;;4.78;;
38037;SDS011;23843;51.320;12.340;2023-06-19T12:03:30;6.22;;;5.72;;
38037;SDS011;23843;51.320;12.340;2023-06-19T12:05:55;4.72;;;4.32;;
38037;SDS011;23843;51.320;12.340;2023-06-19T12:08:21;4.53;;;4.13;;
38037;SDS011;23843;51.320;12.340;2023-06-19T12:10:48;4.28;;;3.97;;
38037;SDS011;23843;51.320;12.340;2023-06-19T12:13:13;4.82;;;4.43;;
38037;SDS011;23843;51.320;12.340;2023-06-19T12:15:39;6.35;;;5.75;;
38037;SDS011;23843;51.320;12.340;2023-06-19T12:18:04;5.53;;;5.03;;
38037;SDS011;23843;51.320;12.340;2023-06-19T12:20:30;5.20;;;4.80;;
38037;SDS011;23843;51.320;12.340;2023-06-19T12:22:55;4.10;;;3.70;;
38037;SDS011;23843;51.320;12.340;2023-06-19T12:25:21;3.42;;;3.13;;
38037;SDS011;23843;51.320;12.340;2023-06-19T12:27:47;2.90;;;2.70;;
38037;SDS011;23843;51.320;12.340;2023-06-19T12:30:13;3.28;;;2.97;;
38037;SDS011;23843;51.320;12.340;2023-06-19T12:32:38;3.17;;;2.97;;
38037;SDS011;23843;51.320;12.340;2023-06-19T12:35:04;2.20;;;2.00;;
38037;SDS011;23843;51.320;12.340;2023-06-19T12:37:30;4.63;;;3.17;;
38037;SDS011;23843;51.320;12.340;2023-06-19T12:39:56;4.70;;;4.30;;
38037;SDS011;23843;51.320;12.340;2023-06-19T12:42:22;2.80;;;2.60;;
38037;SDS011;23843;51.320;12.340;2023-06-19T12:44:49;3.00;;;2.80;;
38037;SDS011;23843;51.320;12.340;2023-06-19T12:47:14;3.55;;;3.25;;
38037;SDS011;23843;51.320;12.340;2023-06-19T12:49:40;2.30;;;2.10;;
38037;SDS011;23843;51.320;12.340;2023-06-19T12:52:06;2.35;;;2.15;;
38037;SDS011;23843;51.320;12.340;2023-06-19T12:54:32;1.40;;;1.30;;
38037;SDS011;23843;51.320;12.340;2023-06-19T12:56:57;2.45;;;2.35;;
38037;SDS011;23843;51.320;12.340;2023-06-19T12:59:23;2.70;;;2.50;;
38037;SDS011;23843;51.320;12.340;2023-06-19T13:01:50;2.13;;;2.00;;
38037;SDS011;23843;51.320;12.340;2023-06-19T13:04:15;4.43;;;4.03;;
38037;SDS011;23843;51.320;12.340;2023-06-19T13:06:41;4.72;;;4.38;;
38037;SDS011;23843;51.320;12.340;2023-06-19T13:09:06;4.20;;;3.90;;
38037;SDS011;23843;51.320;12.340;2023-06-19T13:11:32;4.63;;;4.20;;
38037;SDS011;23843;51.320;12.340;2023-06-19T13:13:57;3.40;;;3.20;;
38037;SDS011;23843;51.320;12.340;2023-06-19T13:16:23;2.60;;;2.40;;
38037;SDS011;23843;51.320;12.340;2023-06-19T13:18:50;5.03;;;4.53;;
38037;SDS011;23843;51.320;12.340;2023-06-19T13:21:15;5.65;;;5.15;;
38037;SDS011;23843;51.320;12.340;2023-06-19T13:23:41;6.20;;;5.60;;
38037;SDS011;23843;51.320;12.340;2023-06-19T13:26:06;5.95;;;5.45;;
38037;SDS011;23843;51.320;12.340;2023-06-19T13:28:32;4.53;;;4.13;;
38037;SDS011;23843;51.320;12.340;2023-06-19T13:30:58;3.25;;;3.05;;
38037;SDS011;23843;51.320;12.340;2023-06-19T13:33:23;2.60;;;2.40;;
38037;SDS011;23843;51.320;12.340;2023-06-19T13:35:50;2.08;;;1.98;;
38037;SDS011;23843;51.320;12.340;2023-06-19T13:38:16;2.28;;;2.15;;
38037;SDS011;23843;51.320;12.340;2023-06-19T13:40:41;1.60;;;1.50;;
38037;SDS011;23843;51.320;12.340;2023-06-19T13:43:07;1.70;;;1.60;;
38037;SDS011;23843;51.320;12.340;2023-06-19T13:45:32;2.00;;;1.90;;
38037;SDS011;23843;51.320;12.340;2023-06-19T13:47:58;2.83;;;2.63;;
38037;SDS011;23843;51.320;12.340;2023-06-19T13:50:23;2.60;;;2.40;;
38037;SDS011;23843;51.320;12.340;2023-06-19T13:52:50;2.70;;;2.50;;
38037;SDS011;23843;51.320;12.340;2023-06-19T13:55:16;3.65;;;3.15;;
38037;SDS011;23843;51.320;12.340;2023-06-19T13:57:41;4.57;;;4.18;;
38037;SDS011;23843;51.320;12.340;2023-06-19T14:00:08;3.95;;;3.55;;
38037;SDS011;23843;51.320;12.340;2023-06-19T14:02:34;2.88;;;2.67;;
38037;SDS011;23843;51.320;12.340;2023-06-19T14:05:00;4.03;;;3.72;;
38037;SDS011;23843;51.320;12.340;2023-06-19T14:07:25;3.50;;;3.20;;
38037;SDS011;23843;51.320;12.340;2023-06-19T14:09:52;3.00;;;2.80;;
38037;SDS011;23843;51.320;12.340;2023-06-19T14:12:17;2.83;;;2.50;;
38037;SDS011;23843;51.320;12.340;2023-06-19T14:14:43;2.80;;;2.60;;
38037;SDS011;23843;51.320;12.340;2023-06-19T14:17:08;3.20;;;2.97;;
38037;SDS011;23843;51.320;12.340;2023-06-19T14:19:34;2.97;;;2.67;;
38037;SDS011;23843;51.320;12.340;2023-06-19T14:21:59;2.60;;;2.40;;
38037;SDS011;23843;51.320;12.340;2023-06-19T14:24:24;1.70;;;1.60;;
38037;SDS011;23843;51.320;12.340;2023-06-19T14:26:51;1.90;;;1.70;;